createdAt,value
2017-06-26T00:00:16.928Z,1002.81
2017-06-26T00:01:16.917Z,1002.8
2017-06-26T00:02:16.906Z,1002.81
2017-06-26T00:03:16.896Z,1002.85
2017-06-26T00:04:16.885Z,1002.82
2017-06-26T00:05:16.875Z,1002.8
2017-06-26T00:06:16.862Z,1002.85
2017-06-26T00:07:16.852Z,1002.85
2017-06-26T00:08:16.839Z,1002.89
2017-06-26T00:09:16.829Z,1002.89
2017-06-26T00:10:16.818Z,1002.86
2017-06-26T00:11:16.808Z,1002.84
2017-06-26T00:12:16.797Z,1002.81
2017-06-26T00:13:16.784Z,1002.84
2017-06-26T00:14:16.775Z,1002.8
2017-06-26T00:15:16.764Z,1002.83
2017-06-26T00:16:16.752Z,1002.81
2017-06-26T00:17:16.744Z,1002.85
2017-06-26T00:18:16.733Z,1002.8
2017-06-26T00:19:16.719Z,1002.8
2017-06-26T00:20:16.709Z,1002.79
2017-06-26T00:21:16.696Z,1002.83
2017-06-26T00:22:16.689Z,1002.85
2017-06-26T00:23:16.678Z,1002.78
2017-06-26T00:24:16.665Z,1002.76
2017-06-26T00:25:16.653Z,1002.81
2017-06-26T00:26:16.646Z,1002.77
2017-06-26T00:27:16.634Z,1002.83
2017-06-26T00:28:16.626Z,1002.81
2017-06-26T00:29:16.613Z,1002.74
2017-06-26T00:30:16.600Z,1002.74
2017-06-26T00:31:16.588Z,1002.74
2017-06-26T00:32:16.578Z,1002.77
2017-06-26T00:33:16.568Z,1002.8
2017-06-26T00:34:16.556Z,1002.79
2017-06-26T00:35:16.546Z,1002.82
2017-06-26T00:36:16.535Z,1002.81
2017-06-26T00:37:16.525Z,1002.82
2017-06-26T00:38:16.512Z,1002.83
2017-06-26T00:39:16.501Z,1002.84
2017-06-26T00:40:16.491Z,1002.87
2017-06-26T00:41:16.479Z,1002.86
2017-06-26T00:42:16.468Z,1002.84
2017-06-26T00:43:16.459Z,1002.82
2017-06-26T00:44:16.448Z,1002.87
2017-06-26T00:45:16.436Z,1002.78
2017-06-26T00:46:16.425Z,1002.76
2017-06-26T00:47:16.414Z,1002.78
2017-06-26T00:48:16.403Z,1002.81
2017-06-26T00:49:16.394Z,1002.78
2017-06-26T00:50:16.381Z,1002.81
2017-06-26T00:51:16.372Z,1002.8
2017-06-26T00:52:16.362Z,1002.84
2017-06-26T00:53:16.350Z,1002.82
2017-06-26T00:54:16.339Z,1002.84
2017-06-26T00:55:16.327Z,1002.86
2017-06-26T00:56:16.318Z,1002.86
2017-06-26T00:57:16.306Z,1002.87
2017-06-26T00:58:16.296Z,1002.85
2017-06-26T00:59:16.306Z,1002.82
2017-06-26T01:00:16.275Z,1002.94
2017-06-26T01:01:16.263Z,1002.82
2017-06-26T01:02:16.252Z,1002.84
2017-06-26T01:03:16.241Z,1002.81
2017-06-26T01:04:16.229Z,1002.8
2017-06-26T01:05:16.221Z,1002.81
2017-06-26T01:06:16.210Z,1002.84
2017-06-26T01:07:16.215Z,1002.78
2017-06-26T01:08:16.187Z,1002.84
2017-06-26T01:09:16.179Z,1002.84
2017-06-26T01:10:16.166Z,1002.9
2017-06-26T01:11:16.156Z,1002.89
2017-06-26T01:12:16.145Z,1002.91
2017-06-26T01:13:16.136Z,1002.88
2017-06-26T01:14:16.124Z,1002.86
2017-06-26T01:15:16.114Z,1002.82
2017-06-26T01:16:16.101Z,1002.88
2017-06-26T01:17:16.091Z,1002.85
2017-06-26T01:18:16.080Z,1002.88
2017-06-26T01:19:16.069Z,1002.85
2017-06-26T01:20:16.060Z,1002.89
2017-06-26T01:21:16.049Z,1002.83
2017-06-26T01:22:16.038Z,1002.79
2017-06-26T01:23:16.028Z,1002.83
2017-06-26T01:24:16.017Z,1002.83
2017-06-26T01:25:16.007Z,1002.87
2017-06-26T01:26:15.996Z,1002.87
2017-06-26T01:27:15.983Z,1002.82
2017-06-26T01:28:15.973Z,1002.82
2017-06-26T01:29:15.962Z,1002.85
2017-06-26T01:30:15.951Z,1002.86
2017-06-26T01:31:15.941Z,1002.86
2017-06-26T01:32:15.929Z,1002.86
2017-06-26T01:33:15.921Z,1002.86
2017-06-26T01:34:15.908Z,1002.88
2017-06-26T01:35:15.900Z,1002.86
2017-06-26T01:36:15.888Z,1002.85
2017-06-26T01:37:15.876Z,1002.83
2017-06-26T01:38:15.868Z,1002.79
2017-06-26T01:39:15.855Z,1002.77
2017-06-26T01:40:15.845Z,1002.7
2017-06-26T01:41:15.832Z,1002.74
2017-06-26T01:42:15.824Z,1002.71
2017-06-26T01:43:15.814Z,1002.73
2017-06-26T01:44:15.801Z,1002.71
2017-06-26T01:45:15.791Z,1002.72
2017-06-26T01:46:15.782Z,1002.77
2017-06-26T01:47:15.770Z,1002.73
2017-06-26T01:48:15.763Z,1002.73
2017-06-26T01:49:15.747Z,1002.75
2017-06-26T01:50:15.743Z,1002.66
2017-06-26T01:51:15.727Z,1002.65
2017-06-26T01:52:15.718Z,1002.69
2017-06-26T01:53:15.708Z,1002.66
2017-06-26T01:54:15.694Z,1002.69
2017-06-26T01:55:15.686Z,1002.71
2017-06-26T01:56:15.677Z,1002.76
2017-06-26T01:57:15.664Z,1002.73
2017-06-26T01:58:15.652Z,1002.75
2017-06-26T01:59:15.641Z,1002.77
2017-06-26T02:00:15.631Z,1002.74
2017-06-26T02:01:15.623Z,1002.78
2017-06-26T02:02:15.614Z,1002.73
2017-06-26T02:03:15.601Z,1002.76
2017-06-26T02:04:15.593Z,1002.76
2017-06-26T02:05:15.578Z,1002.81
2017-06-26T02:06:15.568Z,1002.79
2017-06-26T02:07:15.559Z,1002.78
2017-06-26T02:08:15.549Z,1002.74
2017-06-26T02:09:15.537Z,1002.74
2017-06-26T02:10:15.526Z,1002.77
2017-06-26T02:11:15.516Z,1002.79
2017-06-26T02:12:15.504Z,1002.81
2017-06-26T02:13:15.493Z,1002.8
2017-06-26T02:14:15.485Z,1002.81
2017-06-26T02:15:15.473Z,1002.75
2017-06-26T02:16:15.466Z,1002.74
2017-06-26T02:17:15.451Z,1002.73
2017-06-26T02:18:15.440Z,1002.65
2017-06-26T02:19:15.432Z,1002.67
2017-06-26T02:20:15.421Z,1002.73
2017-06-26T02:21:15.408Z,1002.69
2017-06-26T02:22:15.397Z,1002.7
2017-06-26T02:23:15.391Z,1002.77
2017-06-26T02:24:15.378Z,1002.77
2017-06-26T02:25:15.367Z,1002.76
2017-06-26T02:26:15.355Z,1002.79
2017-06-26T02:27:15.394Z,1002.79
2017-06-26T02:28:15.336Z,1002.77
2017-06-26T02:29:15.323Z,1002.76
2017-06-26T02:30:15.313Z,1002.72
2017-06-26T02:31:15.303Z,1002.7
2017-06-26T02:32:15.291Z,1002.68
2017-06-26T02:33:15.281Z,1002.67
2017-06-26T02:34:15.269Z,1002.68
2017-06-26T02:35:15.258Z,1002.65
2017-06-26T02:36:15.247Z,1002.64
2017-06-26T02:37:15.240Z,1002.67
2017-06-26T02:38:15.226Z,1002.7
2017-06-26T02:39:15.215Z,1002.73
2017-06-26T02:40:15.206Z,1002.73
2017-06-26T02:41:15.196Z,1002.71
2017-06-26T02:42:15.184Z,1002.73
2017-06-26T02:43:15.173Z,1002.75
2017-06-26T02:44:15.162Z,1002.74
2017-06-26T02:45:15.154Z,1002.68
2017-06-26T02:46:15.140Z,1002.72
2017-06-26T02:47:15.131Z,1002.71
2017-06-26T02:48:15.122Z,1002.71
2017-06-26T02:49:15.109Z,1002.74
2017-06-26T02:50:15.099Z,1002.75
2017-06-26T02:51:15.089Z,1002.75
2017-06-26T02:52:15.078Z,1002.77
2017-06-26T02:53:15.067Z,1002.76
2017-06-26T02:54:15.056Z,1002.73
2017-06-26T02:55:15.046Z,1002.8
2017-06-26T02:56:15.035Z,1002.83
2017-06-26T02:57:15.024Z,1002.8
2017-06-26T02:58:15.015Z,1002.76
2017-06-26T02:59:15.003Z,1002.78
2017-06-26T03:00:14.994Z,1002.8
2017-06-26T03:01:14.983Z,1002.8
2017-06-26T03:02:14.971Z,1002.79
2017-06-26T03:03:14.961Z,1002.8
2017-06-26T03:04:14.950Z,1002.75
2017-06-26T03:05:14.940Z,1002.76
2017-06-26T03:06:14.929Z,1002.75
2017-06-26T03:07:14.918Z,1002.79
2017-06-26T03:08:14.909Z,1002.79
2017-06-26T03:09:14.896Z,1002.73
2017-06-26T03:10:14.887Z,1002.75
2017-06-26T03:11:14.878Z,1002.81
2017-06-26T03:12:14.865Z,1002.68
2017-06-26T03:13:14.854Z,1002.64
2017-06-26T03:14:14.843Z,1002.69
2017-06-26T03:15:14.843Z,1002.69
2017-06-26T03:16:14.823Z,1002.67
2017-06-26T03:17:14.813Z,1002.72
2017-06-26T03:18:14.800Z,1002.7
2017-06-26T03:19:14.789Z,1002.73
2017-06-26T03:20:14.779Z,1002.7
2017-06-26T03:21:14.770Z,1002.71
2017-06-26T03:22:14.758Z,1002.68
2017-06-26T03:23:14.748Z,1002.73
2017-06-26T03:24:14.737Z,1002.66
2017-06-26T03:25:14.726Z,1002.69
2017-06-26T03:26:14.716Z,1002.68
2017-06-26T03:27:14.704Z,1002.74
2017-06-26T03:28:14.694Z,1002.72
2017-06-26T03:29:14.685Z,1002.78
2017-06-26T03:30:14.673Z,1002.78
2017-06-26T03:31:14.667Z,1002.82
2017-06-26T03:32:14.652Z,1002.82
2017-06-26T03:33:14.643Z,1002.78
2017-06-26T03:34:14.630Z,1002.8
2017-06-26T03:35:14.620Z,1002.79
2017-06-26T03:36:14.608Z,1002.79
2017-06-26T03:37:14.599Z,1002.82
2017-06-26T03:38:14.590Z,1002.89
2017-06-26T03:39:14.578Z,1002.85
2017-06-26T03:40:14.566Z,1002.9
2017-06-26T03:41:14.555Z,1002.92
2017-06-26T03:42:14.547Z,1002.91
2017-06-26T03:43:14.534Z,1002.88
2017-06-26T03:44:14.523Z,1002.88
2017-06-26T03:45:14.513Z,1002.88
2017-06-26T03:46:14.504Z,1002.95
2017-06-26T03:47:14.491Z,1002.87
2017-06-26T03:48:14.481Z,1002.9
2017-06-26T03:49:14.470Z,1002.87
2017-06-26T03:50:14.460Z,1002.92
2017-06-26T03:51:14.449Z,1002.93
2017-06-26T03:52:14.437Z,1002.9
2017-06-26T03:53:14.426Z,1002.89
2017-06-26T03:54:14.418Z,1002.94
2017-06-26T03:55:14.408Z,1002.9
2017-06-26T03:56:14.395Z,1002.91
2017-06-26T03:57:14.385Z,1002.89
2017-06-26T03:58:14.378Z,1002.94
2017-06-26T03:59:14.363Z,1002.95
2017-06-26T04:00:14.352Z,1002.98
2017-06-26T04:01:14.343Z,1002.99
2017-06-26T04:02:14.331Z,1002.99
2017-06-26T04:03:14.320Z,1002.99
2017-06-26T04:04:14.309Z,1003.01
2017-06-26T04:05:14.299Z,1002.98
2017-06-26T04:06:14.337Z,1002.99
2017-06-26T04:07:14.277Z,1003.02
2017-06-26T04:08:14.269Z,1002.99
2017-06-26T04:09:14.257Z,1002.97
2017-06-26T04:10:14.246Z,1003.03
2017-06-26T04:11:14.237Z,1003.03
2017-06-26T04:12:14.224Z,1003.05
2017-06-26T04:13:14.212Z,1003.09
2017-06-26T04:14:14.203Z,1003.09
2017-06-26T04:15:14.191Z,1003.11
2017-06-26T04:16:14.182Z,1003.09
2017-06-26T04:17:14.170Z,1003.1
2017-06-26T04:18:14.161Z,1003.13
2017-06-26T04:19:14.151Z,1003.16
2017-06-26T04:20:14.140Z,1003.25
2017-06-26T04:21:14.127Z,1003.2
2017-06-26T04:22:14.117Z,1003.25
2017-06-26T04:23:14.108Z,1003.23
2017-06-26T04:24:14.096Z,1003.19
2017-06-26T04:25:14.085Z,1003.19
2017-06-26T04:26:14.075Z,1003.21
2017-06-26T04:27:14.065Z,1003.18
2017-06-26T04:28:14.054Z,1003.17
2017-06-26T04:29:14.043Z,1003.23
2017-06-26T04:30:14.033Z,1003.2
2017-06-26T04:31:14.021Z,1003.23
2017-06-26T04:32:14.011Z,1003.23
2017-06-26T04:33:14.000Z,1003.25
2017-06-26T04:34:13.994Z,1003.27
2017-06-26T04:35:13.980Z,1003.22
2017-06-26T04:36:13.968Z,1003.23
2017-06-26T04:37:13.962Z,1003.22
2017-06-26T04:38:13.950Z,1003.21
2017-06-26T04:39:13.936Z,1003.24
2017-06-26T04:40:13.975Z,1003.22
2017-06-26T04:41:13.916Z,1003.25
2017-06-26T04:42:13.907Z,1003.22
2017-06-26T04:43:13.895Z,1003.24
2017-06-26T04:44:13.884Z,1003.19
2017-06-26T04:45:13.877Z,1003.26
2017-06-26T04:46:13.862Z,1003.22
2017-06-26T04:47:13.853Z,1003.25
2017-06-26T04:48:13.842Z,1003.23
2017-06-26T04:49:13.833Z,1003.27
2017-06-26T04:50:13.821Z,1003.3
2017-06-26T04:51:13.810Z,1003.24
2017-06-26T04:52:13.802Z,1003.27
2017-06-26T04:53:13.789Z,1003.29
2017-06-26T04:54:13.779Z,1003.28
2017-06-26T04:55:13.768Z,1003.31
2017-06-26T04:56:13.759Z,1003.25
2017-06-26T04:57:13.750Z,1003.24
2017-06-26T04:58:13.740Z,1003.3
2017-06-26T04:59:13.729Z,1003.32
2017-06-26T05:00:13.720Z,1003.3
2017-06-26T05:01:13.706Z,1003.27
2017-06-26T05:02:13.697Z,1003.32
2017-06-26T05:03:13.686Z,1003.32
2017-06-26T05:04:13.676Z,1003.33
2017-06-26T05:05:13.665Z,1003.35
2017-06-26T05:06:13.655Z,1003.28
2017-06-26T05:07:13.645Z,1003.31
2017-06-26T05:08:13.635Z,1003.31
2017-06-26T05:09:13.626Z,1003.36
2017-06-26T05:10:13.614Z,1003.37
2017-06-26T05:11:13.605Z,1003.39
2017-06-26T05:12:13.594Z,1003.39
2017-06-26T05:13:13.586Z,1003.38
2017-06-26T05:14:13.575Z,1003.38
2017-06-26T05:15:13.565Z,1003.4
2017-06-26T05:16:13.552Z,1003.43
2017-06-26T05:17:13.543Z,1003.4
2017-06-26T05:18:13.532Z,1003.41
2017-06-26T05:19:13.523Z,1003.42
2017-06-26T05:20:13.513Z,1003.36
2017-06-26T05:21:13.503Z,1003.45
2017-06-26T05:22:13.494Z,1003.42
2017-06-26T05:23:13.481Z,1003.39
2017-06-26T05:24:13.470Z,1003.43
2017-06-26T05:25:13.464Z,1003.42
2017-06-26T05:26:13.452Z,1003.46
2017-06-26T05:27:13.442Z,1003.44
2017-06-26T05:28:13.433Z,1003.47
2017-06-26T05:29:13.421Z,1003.46
2017-06-26T05:30:13.410Z,1003.46
2017-06-26T05:31:13.400Z,1003.51
2017-06-26T05:32:13.391Z,1003.46
2017-06-26T05:33:13.385Z,1003.48
2017-06-26T05:34:13.369Z,1003.5
2017-06-26T05:35:13.361Z,1003.5
2017-06-26T05:36:13.365Z,1003.51
2017-06-26T05:37:13.340Z,1003.53
2017-06-26T05:38:13.329Z,1003.53
2017-06-26T05:39:13.321Z,1003.49
2017-06-26T05:40:13.515Z,1003.48
2017-06-26T05:41:13.302Z,1003.53
2017-06-26T05:42:13.288Z,1003.52
2017-06-26T05:43:13.279Z,1003.59
2017-06-26T05:44:13.269Z,1003.6
2017-06-26T05:45:13.258Z,1003.66
2017-06-26T05:46:13.250Z,1003.61
2017-06-26T05:47:13.290Z,1003.63
2017-06-26T05:48:13.229Z,1003.6
2017-06-26T05:49:13.219Z,1003.66
2017-06-26T05:50:13.208Z,1003.64
2017-06-26T05:51:13.199Z,1003.7
2017-06-26T05:52:13.192Z,1003.72
2017-06-26T05:53:13.195Z,1003.69
2017-06-26T05:54:13.168Z,1003.71
2017-06-26T05:55:13.156Z,1003.72
2017-06-26T05:56:13.168Z,1003.74
2017-06-26T05:57:13.138Z,1003.73
2017-06-26T05:58:13.127Z,1003.79
2017-06-26T05:59:13.116Z,1003.78
2017-06-26T06:00:13.107Z,1003.77
2017-06-26T06:01:13.098Z,1003.8
2017-06-26T06:02:13.088Z,1003.8
2017-06-26T06:03:13.077Z,1003.87
2017-06-26T06:04:13.069Z,1003.87
2017-06-26T06:05:13.057Z,1003.88
2017-06-26T06:06:13.046Z,1003.86
2017-06-26T06:07:13.038Z,1003.91
2017-06-26T06:08:13.027Z,1003.93
2017-06-26T06:09:13.018Z,1003.93
2017-06-26T06:10:13.009Z,1003.95
2017-06-26T06:11:13.000Z,1003.95
2017-06-26T06:12:12.999Z,1003.96
2017-06-26T06:13:12.979Z,1003.95
2017-06-26T06:14:12.974Z,1003.99
2017-06-26T06:15:12.961Z,1003.98
2017-06-26T06:16:12.953Z,1003.98
2017-06-26T06:17:12.939Z,1003.99
2017-06-26T06:18:12.928Z,1004.03
2017-06-26T06:19:12.920Z,1004.04
2017-06-26T06:20:12.910Z,1004.03
2017-06-26T06:21:12.903Z,1004.03
2017-06-26T06:22:12.891Z,1004.03
2017-06-26T06:23:12.882Z,1003.99
2017-06-26T06:24:12.875Z,1004.09
2017-06-26T06:25:12.863Z,1004.09
2017-06-26T06:26:12.852Z,1004.07
2017-06-26T06:27:12.841Z,1004.11
2017-06-26T06:28:12.834Z,1004.14
2017-06-26T06:29:12.822Z,1004.11
2017-06-26T06:30:12.813Z,1004.16
2017-06-26T06:31:12.804Z,1004.12
2017-06-26T06:32:12.793Z,1004.16
2017-06-26T06:33:12.789Z,1004.17
2017-06-26T06:34:12.773Z,1004.18
2017-06-26T06:35:12.766Z,1004.19
2017-06-26T06:36:12.755Z,1004.22
2017-06-26T06:37:12.745Z,1004.2
2017-06-26T06:38:12.735Z,1004.22
2017-06-26T06:39:12.724Z,1004.21
2017-06-26T06:40:12.716Z,1004.21
2017-06-26T06:41:12.705Z,1004.25
2017-06-26T06:42:12.695Z,1004.22
2017-06-26T06:43:12.684Z,1004.25
2017-06-26T06:44:12.676Z,1004.21
2017-06-26T06:45:12.666Z,1004.19
2017-06-26T06:46:12.656Z,1004.25
2017-06-26T06:47:12.648Z,1004.21
2017-06-26T06:48:12.638Z,1004.22
2017-06-26T06:49:12.626Z,1004.25
2017-06-26T06:50:12.615Z,1004.2
2017-06-26T06:51:12.606Z,1004.17
2017-06-26T06:52:12.595Z,1004.2
2017-06-26T06:53:12.587Z,1004.25
2017-06-26T06:54:12.577Z,1004.28
2017-06-26T06:55:12.570Z,1004.24
2017-06-26T06:56:12.559Z,1004.23
2017-06-26T06:57:12.548Z,1004.28
2017-06-26T06:58:12.538Z,1004.22
2017-06-26T06:59:12.529Z,1004.15
2017-06-26T07:00:12.518Z,1004.19
2017-06-26T07:01:12.508Z,1004.19
2017-06-26T07:02:12.498Z,1004.25
2017-06-26T07:03:12.490Z,1004.2
2017-06-26T07:04:12.480Z,1004.23
2017-06-26T07:05:12.470Z,1004.24
2017-06-26T07:06:12.460Z,1004.28
2017-06-26T07:07:12.451Z,1004.28
2017-06-26T07:08:12.440Z,1004.32
2017-06-26T07:09:12.431Z,1004.3
2017-06-26T07:10:12.421Z,1004.28
2017-06-26T07:11:12.413Z,1004.3
2017-06-26T07:12:12.402Z,1004.29
2017-06-26T07:13:12.394Z,1004.26
2017-06-26T07:14:12.384Z,1004.3
2017-06-26T07:15:12.374Z,1004.3
2017-06-26T07:16:12.363Z,1004.3
2017-06-26T07:17:12.356Z,1004.29
2017-06-26T07:18:12.346Z,1004.31
2017-06-26T07:19:12.336Z,1004.33
2017-06-26T07:20:12.327Z,1004.32
2017-06-26T07:21:12.321Z,1004.28
2017-06-26T07:22:12.310Z,1004.28
2017-06-26T07:23:12.301Z,1004.25
2017-06-26T07:24:12.291Z,1004.27
2017-06-26T07:25:12.284Z,1004.29
2017-06-26T07:26:12.322Z,1004.25
2017-06-26T07:27:12.264Z,1004.26
2017-06-26T07:28:12.257Z,1004.27
2017-06-26T07:29:12.248Z,1004.3
2017-06-26T07:30:12.238Z,1004.28
2017-06-26T07:31:12.229Z,1004.35
2017-06-26T07:32:12.221Z,1004.35
2017-06-26T07:33:12.212Z,1004.27
2017-06-26T07:34:12.205Z,1004.28
2017-06-26T07:35:12.198Z,1004.25
2017-06-26T07:36:12.189Z,1004.28
2017-06-26T07:37:12.180Z,1004.29
2017-06-26T07:38:12.173Z,1004.36
2017-06-26T07:39:12.163Z,1004.3
2017-06-26T07:40:12.367Z,1004.33
2017-06-26T07:41:12.147Z,1004.35
2017-06-26T07:42:12.140Z,1004.48
2017-06-26T07:43:12.133Z,1004.3
2017-06-26T07:44:12.126Z,1004.47
2017-06-26T07:45:12.118Z,1004.62
2017-06-26T07:46:12.112Z,1004.62
2017-06-26T07:47:12.106Z,1004.64
2017-06-26T07:48:12.098Z,1004.63
2017-06-26T07:49:12.093Z,1004.37
2017-06-26T07:50:12.089Z,1004.4
2017-06-26T07:51:12.082Z,1004.43
2017-06-26T07:52:12.079Z,1004.4
2017-06-26T07:53:12.087Z,1004.72
2017-06-26T07:54:12.065Z,1004.66
2017-06-26T07:55:12.060Z,1004.47
2017-06-26T07:56:12.054Z,1004.69
2017-06-26T07:57:12.049Z,1004.8
2017-06-26T07:58:12.045Z,1004.78
2017-06-26T07:59:12.040Z,1004.58
2017-06-26T08:00:12.036Z,1004.78
2017-06-26T08:01:12.031Z,1004.78
2017-06-26T08:02:12.026Z,1004.8
2017-06-26T08:03:12.022Z,1004.85
2017-06-26T08:04:12.019Z,1004.72
2017-06-26T08:05:12.013Z,1004.86
2017-06-26T08:06:12.058Z,1004.56
2017-06-26T08:07:12.004Z,1004.79
2017-06-26T08:08:12.002Z,1004.58
2017-06-26T08:09:11.998Z,1004.59
2017-06-26T08:10:11.993Z,1004.54
2017-06-26T08:11:11.989Z,1004.55
2017-06-26T08:12:11.986Z,1004.57
2017-06-26T08:13:11.985Z,1004.55
2017-06-26T08:14:11.978Z,1004.55
2017-06-26T08:15:11.974Z,1004.59
2017-06-26T08:16:11.971Z,1004.58
2017-06-26T08:17:11.966Z,1004.55
2017-06-26T08:18:11.964Z,1004.54
2017-06-26T08:19:11.957Z,1004.57
2017-06-26T08:20:11.955Z,1004.62
2017-06-26T08:21:11.950Z,1004.58
2017-06-26T08:22:11.945Z,1004.55
2017-06-26T08:23:11.941Z,1004.57
2017-06-26T08:24:11.947Z,1004.59
2017-06-26T08:25:11.932Z,1004.52
2017-06-26T08:26:11.928Z,1004.73
2017-06-26T08:27:11.920Z,1004.63
2017-06-26T08:28:11.916Z,1004.62
2017-06-26T08:29:11.910Z,1004.65
2017-06-26T08:30:11.929Z,1004.7
2017-06-26T08:31:11.902Z,1004.64
2017-06-26T08:32:11.944Z,1004.76
2017-06-26T08:33:11.890Z,1004.63
2017-06-26T08:34:11.885Z,1004.68
2017-06-26T08:35:11.882Z,1004.75
2017-06-26T08:36:11.874Z,1004.79
2017-06-26T08:37:11.868Z,1004.78
2017-06-26T08:38:11.863Z,1004.82
2017-06-26T08:39:11.856Z,1005.25
2017-06-26T08:40:11.851Z,1005.27
2017-06-26T08:41:11.847Z,1005.36
2017-06-26T08:42:11.840Z,1005.36
2017-06-26T08:43:11.832Z,1005.4
2017-06-26T08:44:11.828Z,1005.39
2017-06-26T08:45:11.826Z,1005.42
2017-06-26T08:46:11.821Z,1005.44
2017-06-26T08:47:11.819Z,1005.27
2017-06-26T08:48:11.812Z,1005.39
2017-06-26T08:49:11.808Z,1005.37
2017-06-26T08:50:11.856Z,1005.12
2017-06-26T08:51:11.803Z,1005.1
2017-06-26T08:52:11.800Z,1005
2017-06-26T08:53:11.799Z,1005.12
2017-06-26T08:54:11.794Z,1005.06
2017-06-26T08:55:11.792Z,1005.01
2017-06-26T08:56:11.795Z,1004.87
2017-06-26T08:57:11.788Z,1004.9
2017-06-26T08:58:11.784Z,1004.93
2017-06-26T08:59:11.783Z,1004.98
2017-06-26T09:00:11.784Z,1004.94
2017-06-26T09:01:11.776Z,1005
2017-06-26T09:02:11.773Z,1004.98
2017-06-26T09:03:11.821Z,1004.98
2017-06-26T09:04:11.767Z,1005.15
2017-06-26T09:05:11.763Z,1005.16
2017-06-26T09:06:11.758Z,1005.47
2017-06-26T09:07:11.755Z,1005.21
2017-06-26T09:08:11.751Z,1005.53
2017-06-26T09:09:11.747Z,1005.08
2017-06-26T09:10:11.746Z,1005.6
2017-06-26T09:11:11.743Z,1005.06
2017-06-26T09:12:11.736Z,1004.98
2017-06-26T09:13:11.735Z,1005.01
2017-06-26T09:14:11.728Z,1005.66
2017-06-26T09:15:11.725Z,1005.66
2017-06-26T09:16:11.721Z,1005.62
2017-06-26T09:17:11.719Z,1005.63
2017-06-26T09:18:11.714Z,1005.6
2017-06-26T09:19:11.712Z,1005.62
2017-06-26T09:20:11.709Z,1005.7
2017-06-26T09:21:11.707Z,1005.67
2017-06-26T09:22:11.709Z,1005.81
2017-06-26T09:23:11.705Z,1005.04
2017-06-26T09:24:11.703Z,1005.03
2017-06-26T09:25:11.713Z,1005.03
2017-06-26T09:26:11.699Z,1005.11
2017-06-26T09:27:11.697Z,1005.07
2017-06-26T09:28:11.698Z,1005.06
2017-06-26T09:29:11.696Z,1005.71
2017-06-26T09:30:11.696Z,1005.76
2017-06-26T09:31:11.688Z,1005.7
2017-06-26T09:32:11.687Z,1005.73
2017-06-26T09:33:11.685Z,1005.71
2017-06-26T09:34:11.686Z,1005.75
2017-06-26T09:35:11.684Z,1005.66
2017-06-26T09:36:11.682Z,1005.77
2017-06-26T09:37:11.681Z,1005.04
2017-06-26T09:38:11.679Z,1005.75
2017-06-26T09:39:11.681Z,1005.03
2017-06-26T09:40:11.679Z,1005.8
2017-06-26T09:41:11.677Z,1005.77
2017-06-26T09:42:11.679Z,1005.02
2017-06-26T09:43:11.680Z,1005.62
2017-06-26T09:44:11.679Z,1005.1
2017-06-26T09:45:11.675Z,1005.55
2017-06-26T09:46:11.677Z,1005.09
2017-06-26T09:47:11.676Z,1005.12
2017-06-26T09:48:11.674Z,1005.58
2017-06-26T09:49:11.674Z,1005.11
2017-06-26T09:50:11.673Z,1005.11
2017-06-26T09:51:11.670Z,1005.13
2017-06-26T09:52:11.673Z,1005.09
2017-06-26T09:53:11.667Z,1005.9
2017-06-26T09:54:11.666Z,1005.92
2017-06-26T09:55:11.665Z,1005.82
2017-06-26T09:56:11.665Z,1005.12
2017-06-26T09:57:11.666Z,1005.16
2017-06-26T09:58:11.666Z,1005.18
2017-06-26T09:59:11.664Z,1005.21
2017-06-26T10:00:11.661Z,1005.12
2017-06-26T10:01:11.659Z,1005.08
2017-06-26T10:02:11.658Z,1005.07
2017-06-26T10:03:11.655Z,1005.07
2017-06-26T10:04:11.651Z,1005.07
2017-06-26T10:05:11.652Z,1005.06
2017-06-26T10:06:11.646Z,1005.88
2017-06-26T10:07:11.643Z,1005.89
2017-06-26T10:08:11.641Z,1005.85
2017-06-26T10:09:11.640Z,1005.84
2017-06-26T10:10:11.659Z,1005.82
2017-06-26T10:11:11.654Z,1005.13
2017-06-26T10:12:11.630Z,1005.12
2017-06-26T10:13:11.630Z,1005.1
2017-06-26T10:14:11.629Z,1005.15
2017-06-26T10:15:11.624Z,1005.85
2017-06-26T10:16:11.643Z,1005.04
2017-06-26T10:17:11.621Z,1005.07
2017-06-26T10:18:11.618Z,1005.08
2017-06-26T10:19:11.617Z,1005.14
2017-06-26T10:20:11.615Z,1005.1
2017-06-26T10:21:11.612Z,1005.16
2017-06-26T10:22:11.609Z,1005.18
2017-06-26T10:23:11.607Z,1005.82
2017-06-26T10:24:11.604Z,1005.92
2017-06-26T10:25:11.606Z,1005.91
2017-06-26T10:26:11.600Z,1005.94
2017-06-26T10:27:11.596Z,1005.92
2017-06-26T10:28:11.598Z,1005.84
2017-06-26T10:29:11.599Z,1005.93
2017-06-26T10:30:11.597Z,1005.73
2017-06-26T10:31:11.597Z,1005.93
2017-06-26T10:32:11.594Z,1006
2017-06-26T10:33:11.593Z,1005.93
2017-06-26T10:34:11.595Z,1005.4
2017-06-26T10:35:11.595Z,1005.31
2017-06-26T10:36:11.597Z,1005.3
2017-06-26T10:37:11.596Z,1005.3
2017-06-26T10:38:11.598Z,1005.35
2017-06-26T10:39:11.598Z,1006.06
2017-06-26T10:40:11.598Z,1005.42
2017-06-26T10:41:11.599Z,1005.96
2017-06-26T10:42:11.598Z,1006
2017-06-26T10:43:11.599Z,1005.86
2017-06-26T10:44:11.600Z,1005.93
2017-06-26T10:45:11.599Z,1005.98
2017-06-26T10:46:11.607Z,1005.87
2017-06-26T10:47:11.604Z,1005.84
2017-06-26T10:48:11.601Z,1005.7
2017-06-26T10:49:11.602Z,1005.73
2017-06-26T10:50:11.604Z,1005.55
2017-06-26T10:51:11.603Z,1005.55
2017-06-26T10:52:11.607Z,1005.51
2017-06-26T10:53:11.611Z,1005.52
2017-06-26T10:54:11.613Z,1005.55
2017-06-26T10:55:11.614Z,1005.56
2017-06-26T10:56:11.614Z,1005.49
2017-06-26T10:57:11.619Z,1005.49
2017-06-26T10:58:11.621Z,1005.47
2017-06-26T10:59:11.630Z,1005.47
2017-06-26T11:00:11.626Z,1005.51
2017-06-26T11:01:11.631Z,1005.53
2017-06-26T11:02:11.632Z,1005.37
2017-06-26T11:03:11.636Z,1005.41
2017-06-26T11:04:11.638Z,1005.45
2017-06-26T11:05:11.643Z,1005.43
2017-06-26T11:06:11.642Z,1005.6
2017-06-26T11:07:11.644Z,1005.5
2017-06-26T11:08:11.648Z,1005.54
2017-06-26T11:09:11.648Z,1005.49
2017-06-26T11:10:11.652Z,1005.47
2017-06-26T11:11:11.653Z,1005.37
2017-06-26T11:12:11.656Z,1005.53
2017-06-26T11:13:11.657Z,1005.5
2017-06-26T11:14:11.659Z,1005.48
2017-06-26T11:15:11.661Z,1005.48
2017-06-26T11:16:11.663Z,1005.39
2017-06-26T11:17:11.666Z,1005.38
2017-06-26T11:18:11.672Z,1005.42
2017-06-26T11:19:11.673Z,1005.52
2017-06-26T11:20:11.676Z,1005.43
2017-06-26T11:21:11.678Z,1005.56
2017-06-26T11:22:11.681Z,1005.58
2017-06-26T11:23:11.683Z,1005.58
2017-06-26T11:24:11.684Z,1005.45
2017-06-26T11:25:11.690Z,1005.61
2017-06-26T11:26:11.690Z,1005.6
2017-06-26T11:27:11.694Z,1005.53
2017-06-26T11:28:11.694Z,1005.53
2017-06-26T11:29:11.700Z,1005.46
2017-06-26T11:30:11.702Z,1005.54
2017-06-26T11:31:11.706Z,1005.47
2017-06-26T11:32:11.714Z,1005.43
2017-06-26T11:33:11.712Z,1005.42
2017-06-26T11:34:11.717Z,1005.55
2017-06-26T11:35:11.718Z,1005.6
2017-06-26T11:36:11.720Z,1005.56
2017-06-26T11:37:11.723Z,1005.54
2017-06-26T11:38:11.726Z,1005.61
2017-06-26T11:39:11.731Z,1005.58
2017-06-26T11:40:11.936Z,1005.63
2017-06-26T11:41:11.737Z,1005.65
2017-06-26T11:42:11.741Z,1005.64
2017-06-26T11:43:11.744Z,1005.69
2017-06-26T11:44:11.750Z,1005.72
2017-06-26T11:45:11.751Z,1005.69
2017-06-26T11:46:11.755Z,1005.71
2017-06-26T11:47:11.758Z,1005.71
2017-06-26T11:48:11.763Z,1005.65
2017-06-26T11:49:11.766Z,1005.65
2017-06-26T11:50:11.771Z,1005.72
2017-06-26T11:51:11.773Z,1005.78
2017-06-26T11:52:11.778Z,1005.74
2017-06-26T11:53:11.781Z,1005.65
2017-06-26T11:54:11.788Z,1005.73
2017-06-26T11:55:11.792Z,1005.75
2017-06-26T11:56:11.795Z,1005.67
2017-06-26T11:57:11.797Z,1005.56
2017-06-26T11:58:11.804Z,1005.58
2017-06-26T11:59:11.804Z,1005.64
2017-06-26T12:00:11.808Z,1005.65
2017-06-26T12:01:11.810Z,1005.59
2017-06-26T12:02:11.814Z,1005.61
2017-06-26T12:03:11.818Z,1005.52
2017-06-26T12:04:11.821Z,1005.66
2017-06-26T12:05:11.825Z,1005.65
2017-06-26T12:06:11.828Z,1005.64
2017-06-26T12:07:11.832Z,1005.72
2017-06-26T12:08:11.837Z,1005.76